createdAt,value
2018-12-22T00:01:18.839Z,3.10
2018-12-22T00:03:46.428Z,2.10
2018-12-22T00:06:14.034Z,3.33
2018-12-22T00:08:41.725Z,2.90
2018-12-22T00:11:09.479Z,2.17
2018-12-22T00:13:37.355Z,2.87
2018-12-22T00:16:05.003Z,3.87
2018-12-22T00:18:32.673Z,1.83
2018-12-22T00:21:00.282Z,1.03
2018-12-22T00:23:27.903Z,3.40
2018-12-22T00:25:55.614Z,1.60
2018-12-22T00:28:23.315Z,1.50
2018-12-22T00:30:50.905Z,1.77
2018-12-22T00:33:18.602Z,1.87
2018-12-22T00:35:46.163Z,3.70
2018-12-22T00:38:13.985Z,2.70
2018-12-22T00:40:41.747Z,1.57
2018-12-22T00:43:09.616Z,5.67
2018-12-22T00:45:37.185Z,3.13
2018-12-22T00:48:05.041Z,1.67
2018-12-22T00:50:33.111Z,2.97
2018-12-22T00:53:00.901Z,2.63
2018-12-22T00:55:28.460Z,2.50
2018-12-22T00:57:56.095Z,2.80
2018-12-22T01:00:23.719Z,4.83
2018-12-22T01:02:51.432Z,5.03
2018-12-22T01:05:19.163Z,2.57
2018-12-22T01:07:46.805Z,1.43
2018-12-22T01:10:15.897Z,1.03
2018-12-22T01:12:44.537Z,1.53
2018-12-22T01:15:13.022Z,1.43
2018-12-22T01:17:41.529Z,2.30
2018-12-22T01:20:09.495Z,2.40
2018-12-22T01:22:37.335Z,3.53
2018-12-22T01:25:05.831Z,2.27
2018-12-22T01:27:33.517Z,2.57
2018-12-22T01:30:01.156Z,2.30
2018-12-22T01:32:28.826Z,1.63
2018-12-22T01:34:56.522Z,4.90
2018-12-22T01:37:24.146Z,1.23
2018-12-22T01:39:51.731Z,0.97
2018-12-22T01:42:19.340Z,0.60
2018-12-22T01:44:47.333Z,0.93
2018-12-22T01:47:14.974Z,0.50
2018-12-22T01:49:42.700Z,0.60
2018-12-22T01:52:10.344Z,2.00
2018-12-22T01:54:37.972Z,0.73
2018-12-22T01:57:05.729Z,0.40
2018-12-22T01:59:33.603Z,1.03
2018-12-22T02:02:01.297Z,0.60
2018-12-22T02:04:29.082Z,1.60
2018-12-22T02:06:56.790Z,1.00
2018-12-22T02:09:24.651Z,1.37
2018-12-22T02:11:52.423Z,0.83
2018-12-22T02:14:20.054Z,0.80
2018-12-22T02:16:47.764Z,1.17
2018-12-22T02:19:15.515Z,1.10
2018-12-22T02:21:43.280Z,1.37
2018-12-22T02:24:10.895Z,4.27
2018-12-22T02:26:38.702Z,2.00
2018-12-22T02:29:06.471Z,2.93
2018-12-22T02:31:34.173Z,2.17
2018-12-22T02:34:01.800Z,2.03
2018-12-22T02:36:29.450Z,1.23
2018-12-22T02:38:57.191Z,1.33
2018-12-22T02:41:24.833Z,1.57
2018-12-22T02:43:52.402Z,1.50
2018-12-22T02:46:20.081Z,2.73
2018-12-22T02:48:47.742Z,2.77
2018-12-22T02:51:15.315Z,2.37
2018-12-22T02:53:42.885Z,1.47
2018-12-22T02:56:10.554Z,1.37
2018-12-22T02:58:38.297Z,2.77
2018-12-22T03:01:05.891Z,1.87
2018-12-22T03:03:34.150Z,1.50
2018-12-22T03:06:01.811Z,1.37
2018-12-22T03:08:29.921Z,2.13
2018-12-22T03:10:57.586Z,3.00
2018-12-22T03:13:25.248Z,3.17
2018-12-22T03:15:52.949Z,1.00
2018-12-22T03:18:20.543Z,1.53
2018-12-22T03:20:48.313Z,1.00
2018-12-22T03:23:16.068Z,6.50
2018-12-22T03:25:43.646Z,2.47
2018-12-22T03:28:11.486Z,5.53
2018-12-22T03:30:39.262Z,2.77
2018-12-22T03:33:07.037Z,3.60
2018-12-22T03:35:34.643Z,1.50
2018-12-22T03:38:02.281Z,2.30
2018-12-22T03:40:29.990Z,1.17
2018-12-22T03:42:57.628Z,1.40
2018-12-22T03:45:25.211Z,2.43
2018-12-22T03:47:53.295Z,2.87
2018-12-22T03:50:20.894Z,2.20
2018-12-22T03:52:48.648Z,1.40
2018-12-22T03:55:16.309Z,1.90
2018-12-22T03:57:43.910Z,2.20
2018-12-22T04:00:11.532Z,1.93
2018-12-22T04:02:39.155Z,1.30
2018-12-22T04:05:07.785Z,1.57
2018-12-22T04:07:35.882Z,1.90
2018-12-22T04:10:05.124Z,2.50
2018-12-22T04:12:32.897Z,2.00
2018-12-22T04:15:00.573Z,0.70
2018-12-22T04:17:28.164Z,3.50
2018-12-22T04:19:55.980Z,0.80
2018-12-22T04:22:23.952Z,0.63
2018-12-22T04:24:53.643Z,0.53
2018-12-22T04:27:21.328Z,1.07
2018-12-22T04:29:49.292Z,0.87
2018-12-22T04:32:17.161Z,2.10
2018-12-22T04:34:44.816Z,1.13
2018-12-22T04:37:12.407Z,1.70
2018-12-22T04:39:40.067Z,1.53
2018-12-22T04:42:07.697Z,2.53
2018-12-22T04:44:35.295Z,1.70
2018-12-22T04:47:02.923Z,1.90
2018-12-22T04:49:30.546Z,2.90
2018-12-22T04:51:58.197Z,6.70
2018-12-22T04:54:25.884Z,4.63
2018-12-22T04:56:53.593Z,2.40
2018-12-22T04:59:21.201Z,3.53
2018-12-22T05:01:48.845Z,2.57
2018-12-22T05:04:16.441Z,2.23
2018-12-22T05:06:44.078Z,1.80
2018-12-22T05:09:11.729Z,2.67
2018-12-22T05:11:39.431Z,4.07
2018-12-22T05:14:07.084Z,5.87
2018-12-22T05:16:34.654Z,10.10
2018-12-22T05:19:02.329Z,10.57
2018-12-22T05:21:30.210Z,16.60
2018-12-22T05:23:57.866Z,8.80
2018-12-22T05:26:25.626Z,11.30
2018-12-22T05:28:54.225Z,11.50
2018-12-22T05:31:22.073Z,11.43
2018-12-22T05:33:49.722Z,9.53
2018-12-22T05:36:17.361Z,7.10
2018-12-22T05:38:45.079Z,9.47
2018-12-22T05:41:12.752Z,3.80
2018-12-22T05:43:40.343Z,3.37
2018-12-22T05:46:08.126Z,5.57
2018-12-22T05:48:35.821Z,3.87
2018-12-22T05:51:03.589Z,5.43
2018-12-22T05:53:31.345Z,9.70
2018-12-22T05:55:59.078Z,8.70
2018-12-22T05:58:26.888Z,11.20
2018-12-22T06:00:54.712Z,15.30
2018-12-22T06:03:22.509Z,15.67
2018-12-22T06:05:51.702Z,15.47
2018-12-22T06:08:19.474Z,17.57
2018-12-22T06:10:47.226Z,20.17
2018-12-22T06:13:15.090Z,16.80
2018-12-22T06:15:42.679Z,37.60
2018-12-22T06:18:10.466Z,33.53
2018-12-22T06:20:38.201Z,29.40
2018-12-22T06:23:05.881Z,24.83
2018-12-22T06:25:33.602Z,15.40
2018-12-22T06:28:01.186Z,18.93
2018-12-22T06:30:28.759Z,10.87
2018-12-22T06:32:56.396Z,10.70
2018-12-22T06:35:24.056Z,11.87
2018-12-22T06:37:51.725Z,15.93
2018-12-22T06:40:19.321Z,13.40
2018-12-22T06:42:46.993Z,16.40
2018-12-22T06:45:14.656Z,13.03
2018-12-22T06:47:42.314Z,16.33
2018-12-22T06:50:10.090Z,12.73
2018-12-22T06:52:37.757Z,15.23
2018-12-22T06:55:06.375Z,14.43
2018-12-22T06:57:33.979Z,17.07
2018-12-22T07:00:01.920Z,18.30
2018-12-22T07:02:29.587Z,18.33
2018-12-22T07:04:57.189Z,16.43
2018-12-22T07:07:24.759Z,16.30
2018-12-22T07:09:52.417Z,9.10
2018-12-22T07:12:20.042Z,17.80
2018-12-22T07:14:48.955Z,17.03
2018-12-22T07:17:16.631Z,16.40
2018-12-22T07:19:44.209Z,15.23
2018-12-22T07:22:12.263Z,16.70
2018-12-22T07:24:41.162Z,16.17
2018-12-22T07:27:08.869Z,11.97
2018-12-22T07:29:36.578Z,10.60
2018-12-22T07:32:04.385Z,17.17
2018-12-22T07:34:32.191Z,14.90
2018-12-22T07:36:59.946Z,22.10
2018-12-22T07:39:27.658Z,25.43
2018-12-22T07:41:55.432Z,23.20
2018-12-22T07:44:23.080Z,31.20
2018-12-22T07:46:50.793Z,28.03
2018-12-22T07:49:18.404Z,33.70
2018-12-22T07:51:46.117Z,28.13
2018-12-22T07:54:13.757Z,21.33
2018-12-22T07:56:41.433Z,17.70
2018-12-22T07:59:09.109Z,20.07
2018-12-22T08:01:36.765Z,17.60
2018-12-22T08:04:04.475Z,19.77
2018-12-22T08:06:32.195Z,15.97
2018-12-22T08:08:59.882Z,16.10
2018-12-22T08:11:27.571Z,9.53
2018-12-22T08:13:55.225Z,12.20
2018-12-22T08:16:22.889Z,9.10
2018-12-22T08:18:50.548Z,12.80
2018-12-22T08:21:19.252Z,10.23
2018-12-22T08:23:46.909Z,11.73
2018-12-22T08:26:14.547Z,17.97
2018-12-22T08:28:42.245Z,12.00
2018-12-22T08:31:09.857Z,14.60
2018-12-22T08:33:37.518Z,15.33
2018-12-22T08:36:05.223Z,16.17
2018-12-22T08:38:32.870Z,9.40
2018-12-22T08:41:00.629Z,12.43
2018-12-22T08:43:28.293Z,8.17
2018-12-22T08:45:55.937Z,12.43
2018-12-22T08:48:23.556Z,6.60
2018-12-22T08:50:52.410Z,14.20
2018-12-22T08:53:20.023Z,13.53
2018-12-22T08:55:47.734Z,12.70
2018-12-22T08:58:15.407Z,12.80
2018-12-22T09:00:43.185Z,11.40
2018-12-22T09:03:12.406Z,15.60
2018-12-22T09:05:40.115Z,89.37
2018-12-22T09:08:07.728Z,62.03
2018-12-22T09:10:35.414Z,22.83
2018-12-22T09:13:03.204Z,31.43
2018-12-22T09:15:30.858Z,14.07
2018-12-22T09:17:58.459Z,48.93
2018-12-22T09:20:26.125Z,27.83
2018-12-22T09:22:53.729Z,47.50
2018-12-22T09:25:21.392Z,69.93
2018-12-22T09:27:49.274Z,40.37
2018-12-22T09:30:17.047Z,60.07
2018-12-22T09:32:44.719Z,37.83
2018-12-22T09:35:12.549Z,35.87
2018-12-22T09:37:40.176Z,60.77
2018-12-22T09:40:08.046Z,29.40
2018-12-22T09:42:35.671Z,27.60
2018-12-22T09:45:03.724Z,34.60
2018-12-22T09:47:31.400Z,30.80
2018-12-22T09:49:59.137Z,30.80
2018-12-22T09:52:26.974Z,26.87
2018-12-22T09:54:54.650Z,30.53
2018-12-22T09:57:22.258Z,26.40
2018-12-22T09:59:49.948Z,45.50
2018-12-22T10:02:17.792Z,36.10
2018-12-22T10:04:45.416Z,28.93
2018-12-22T10:07:13.416Z,47.63
2018-12-22T10:09:41.231Z,70.60
2018-12-22T10:12:08.992Z,36.40
2018-12-22T10:14:36.622Z,27.33
2018-12-22T10:17:05.064Z,41.87
2018-12-22T10:19:32.678Z,46.57
2018-12-22T10:22:00.433Z,35.27
2018-12-22T10:24:28.069Z,40.90
2018-12-22T10:26:55.758Z,23.87
2018-12-22T10:29:23.403Z,25.80
2018-12-22T10:31:51.070Z,23.60
2018-12-22T10:34:18.655Z,24.33
2018-12-22T10:36:46.353Z,16.57
2018-12-22T10:39:14.041Z,15.40
2018-12-22T10:41:41.702Z,13.10
2018-12-22T10:44:09.382Z,8.50
2018-12-22T10:46:37.131Z,9.27
2018-12-22T10:49:04.720Z,10.47
2018-12-22T10:51:32.574Z,11.90
2018-12-22T10:54:00.349Z,10.70
2018-12-22T10:56:27.966Z,15.20
2018-12-22T10:58:55.673Z,12.60
2018-12-22T11:01:26.582Z,12.60
2018-12-22T11:03:53.119Z,38.83
2018-12-22T11:06:20.964Z,34.33
2018-12-22T11:08:50.605Z,36.67
2018-12-22T11:11:19.508Z,46.30
2018-12-22T11:13:47.201Z,35.87
2018-12-22T11:16:15.259Z,45.23
2018-12-22T11:18:43.143Z,36.07
2018-12-22T11:21:12.347Z,35.23
2018-12-22T11:23:39.958Z,35.97
2018-12-22T11:26:07.688Z,20.60
2018-12-22T11:28:35.277Z,24.90
2018-12-22T11:31:02.912Z,27.17
2018-12-22T11:33:30.589Z,26.70
2018-12-22T11:35:58.365Z,21.07
2018-12-22T11:38:27.040Z,22.03
2018-12-22T11:40:55.605Z,28.40
2018-12-22T11:43:23.748Z,22.33
2018-12-22T11:45:51.479Z,25.13
2018-12-22T11:48:21.545Z,18.90
2018-12-22T11:50:49.310Z,15.40
2018-12-22T11:53:17.205Z,16.90
2018-12-22T11:55:46.008Z,15.13
2018-12-22T11:58:14.126Z,6.10
2018-12-22T12:00:43.768Z,13.43
2018-12-22T12:03:11.655Z,11.17
2018-12-22T12:05:40.222Z,22.93
2018-12-22T12:08:08.755Z,18.00
2018-12-22T12:10:37.689Z,14.70
2018-12-22T12:13:05.434Z,19.27
2018-12-22T12:15:38.215Z,14.27
2018-12-22T12:18:16.826Z,9.67
2018-12-22T12:20:44.632Z,8.87
2018-12-22T12:23:12.462Z,4.70
2018-12-22T12:25:40.398Z,17.87
2018-12-22T12:28:08.173Z,2.97
2018-12-22T12:30:35.965Z,2.00
2018-12-22T12:33:03.969Z,2.53
2018-12-22T12:35:31.949Z,2.00
2018-12-22T12:38:02.169Z,12.60
2018-12-22T12:40:29.933Z,1.77
2018-12-22T12:42:57.690Z,0.63
2018-12-22T12:45:25.841Z,0.73
2018-12-22T12:47:53.628Z,10.60
2018-12-22T12:50:23.634Z,1.73
2018-12-22T12:52:51.354Z,0.40
2018-12-22T12:55:19.011Z,0.50
2018-12-22T12:57:47.296Z,0.73
2018-12-22T13:00:21.158Z,0.70
2018-12-22T13:02:48.758Z,0.50
2018-12-22T13:05:16.412Z,0.40
2018-12-22T13:07:44.097Z,1.20
2018-12-22T13:10:15.108Z,0.40
2018-12-22T13:15:46.571Z,0.80
2018-12-22T13:18:15.961Z,2.67
2018-12-22T13:20:43.686Z,0.50
2018-12-22T13:23:11.327Z,1.70
2018-12-22T13:25:39.165Z,0.97
2018-12-22T13:28:07.690Z,0.40
2018-12-22T13:30:36.329Z,0.60
2018-12-22T13:33:04.714Z,0.73
2018-12-22T13:35:33.747Z,0.30
2018-12-22T13:38:01.350Z,0.57
2018-12-22T13:40:29.145Z,1.43
2018-12-22T13:42:58.075Z,0.50
2018-12-22T13:45:26.978Z,0.40
2018-12-22T13:47:55.979Z,0.50
2018-12-22T13:50:24.137Z,0.60
2018-12-22T13:52:51.963Z,0.60
2018-12-22T13:55:20.826Z,0.63
2018-12-22T13:57:50.687Z,0.50
2018-12-22T14:00:23.259Z,0.63
2018-12-22T14:02:51.035Z,0.47
2018-12-22T14:05:26.211Z,1.67
2018-12-22T14:07:53.872Z,0.40
2018-12-22T14:10:23.218Z,0.50
2018-12-22T14:12:51.097Z,0.40
2018-12-22T14:15:22.541Z,0.30
2018-12-22T14:20:52.841Z,2.97
2018-12-22T14:23:23.210Z,5.70
2018-12-22T14:25:50.839Z,2.00
2018-12-22T14:28:18.479Z,0.50
2018-12-22T14:30:46.453Z,1.17
2018-12-22T14:33:15.100Z,5.00
2018-12-22T14:35:42.825Z,0.53
2018-12-22T14:38:13.022Z,0.80
2018-12-22T14:40:40.778Z,0.40
2018-12-22T14:43:08.462Z,0.40
2018-12-22T14:45:36.142Z,0.40
2018-12-22T14:48:04.583Z,0.40
2018-12-22T14:50:32.254Z,0.80
2018-12-22T14:52:59.996Z,0.30
2018-12-22T14:55:28.771Z,1.67
2018-12-22T14:58:00.230Z,4.57
2018-12-22T15:00:27.897Z,5.50
2018-12-22T15:02:55.747Z,0.40
2018-12-22T15:05:23.446Z,0.80
2018-12-22T15:07:51.655Z,3.30
2018-12-22T15:10:19.431Z,1.33
2018-12-22T15:12:47.638Z,5.43
2018-12-22T15:15:15.935Z,1.23
2018-12-22T15:17:44.278Z,0.80
2018-12-22T15:20:24.490Z,7.33
2018-12-22T15:22:53.907Z,2.63
2018-12-22T15:25:23.204Z,2.53
2018-12-22T15:27:50.901Z,6.70
2018-12-22T15:30:19.809Z,1.90
2018-12-22T15:32:54.382Z,0.50
2018-12-22T15:35:19.457Z,1.80
2018-12-22T15:37:47.148Z,1.80
2018-12-22T15:40:14.902Z,0.57
2018-12-22T15:42:42.560Z,1.50
2018-12-22T15:45:15.601Z,0.60
2018-12-22T15:47:45.012Z,1.70
2018-12-22T15:50:17.896Z,1.57
2018-12-22T15:52:45.783Z,0.50
2018-12-22T15:55:13.855Z,3.23
2018-12-22T15:57:45.093Z,3.27
2018-12-22T16:00:13.682Z,0.93
2018-12-22T16:02:42.548Z,0.70
2018-12-22T16:05:13.528Z,1.93
2018-12-22T16:07:42.328Z,2.57
2018-12-22T16:10:14.011Z,0.70
2018-12-22T16:12:44.387Z,9.73
2018-12-22T16:15:19.328Z,3.20
2018-12-22T16:17:47.793Z,4.23
2018-12-22T16:20:15.527Z,4.97
2018-12-22T16:22:55.339Z,1.50
2018-12-22T16:25:27.363Z,3.17
2018-12-22T16:27:59.892Z,2.10
2018-12-22T16:30:47.865Z,1.67
2018-12-22T16:33:16.801Z,3.33
2018-12-22T16:35:44.566Z,8.63
2018-12-22T16:38:12.982Z,1.13
2018-12-22T16:40:42.074Z,0.80
2018-12-22T16:43:13.320Z,2.47
2018-12-22T16:45:43.339Z,0.40
2018-12-22T16:48:11.962Z,0.60
2018-12-22T16:50:40.172Z,1.07
2018-12-22T16:53:08.666Z,6.10
2018-12-22T16:55:36.604Z,0.93
2018-12-22T16:58:09.843Z,0.97
2018-12-22T17:03:40.219Z,0.30
2018-12-22T17:06:12.636Z,1.30
2018-12-22T17:08:40.445Z,0.67
2018-12-22T17:11:09.102Z,2.47
2018-12-22T17:13:36.866Z,1.00
2018-12-22T17:16:06.318Z,8.40
2018-12-22T17:18:34.283Z,5.97
2018-12-22T17:21:07.979Z,8.33
2018-12-22T17:23:50.311Z,1.33
2018-12-22T17:26:19.153Z,0.90
2018-12-22T17:28:46.826Z,1.57
2018-12-22T17:31:14.608Z,0.60
2018-12-22T17:33:43.718Z,0.80
2018-12-22T17:36:14.428Z,3.67
2018-12-22T17:38:42.385Z,0.40
2018-12-22T17:41:13.604Z,0.97
2018-12-22T17:43:43.432Z,1.73
2018-12-22T17:46:12.897Z,0.87
2018-12-22T17:48:41.367Z,2.43
2018-12-22T17:51:09.158Z,6.20
2018-12-22T17:53:37.364Z,1.03
2018-12-22T17:56:05.134Z,0.53
2018-12-22T17:58:33.113Z,1.13
2018-12-22T18:01:01.044Z,1.03
2018-12-22T18:03:29.004Z,0.80
2018-12-22T18:05:57.832Z,0.90
2018-12-22T18:08:26.424Z,2.20
2018-12-22T18:10:54.312Z,4.77
2018-12-22T18:13:22.141Z,7.57
2018-12-22T18:15:50.943Z,2.53
2018-12-22T18:18:18.899Z,1.10
2018-12-22T18:20:47.210Z,1.27
2018-12-22T18:23:14.934Z,4.43
2018-12-22T18:25:42.696Z,2.53
2018-12-22T18:28:10.563Z,2.40
2018-12-22T18:30:38.342Z,4.77
2018-12-22T18:33:06.334Z,7.10
2018-12-22T18:35:34.477Z,2.93
2018-12-22T18:38:02.800Z,0.50
2018-12-22T18:40:30.970Z,0.30
2018-12-22T18:42:58.775Z,0.87
2018-12-22T18:45:26.962Z,1.23
2018-12-22T18:47:55.593Z,0.30
2018-12-22T18:50:24.545Z,1.23
2018-12-22T18:52:52.651Z,0.53
2018-12-22T18:55:20.388Z,1.17
2018-12-22T18:57:50.096Z,0.83
2018-12-22T19:00:22.087Z,1.40
2018-12-22T19:02:51.742Z,1.50
2018-12-22T19:05:20.307Z,1.07
2018-12-22T19:07:49.029Z,0.37
2018-12-22T19:10:23.020Z,0.20
2018-12-22T19:12:50.678Z,1.70
2018-12-22T19:15:18.617Z,2.93
2018-12-22T19:17:46.439Z,0.90
2018-12-22T19:20:24.114Z,1.37
2018-12-22T19:22:51.873Z,0.70
2018-12-22T19:25:19.797Z,0.87
2018-12-22T19:27:48.394Z,2.60
2018-12-22T19:30:16.174Z,1.17
2018-12-22T19:32:44.185Z,0.70
2018-12-22T19:35:12.092Z,0.60
2018-12-22T19:37:39.882Z,2.33
2018-12-22T19:40:08.847Z,0.20
2018-12-22T19:42:37.334Z,0.90
2018-12-22T19:45:06.823Z,0.40
2018-12-22T19:47:34.552Z,1.27
2018-12-22T19:50:02.535Z,0.40
2018-12-22T19:52:30.257Z,3.27
2018-12-22T19:54:57.866Z,0.50
2018-12-22T19:57:25.625Z,0.60
2018-12-22T19:59:53.366Z,0.50
2018-12-22T20:02:21.134Z,0.30
2018-12-22T20:04:48.832Z,1.70
2018-12-22T20:07:16.543Z,2.30
2018-12-22T20:09:44.988Z,0.80
2018-12-22T20:12:14.157Z,0.83
2018-12-22T20:14:41.961Z,0.60
2018-12-22T20:17:09.802Z,3.67
2018-12-22T20:19:37.828Z,0.50
2018-12-22T20:22:05.659Z,0.70
2018-12-22T20:24:35.170Z,0.37
2018-12-22T20:27:03.636Z,0.70
2018-12-22T20:29:34.896Z,5.43
2018-12-22T20:32:02.532Z,4.60
2018-12-22T20:34:30.239Z,4.50
2018-12-22T20:36:58.637Z,1.70
2018-12-22T20:39:26.664Z,1.77
2018-12-22T20:41:54.338Z,1.63
2018-12-22T20:44:22.930Z,0.30
2018-12-22T20:46:51.477Z,1.83
2018-12-22T20:49:21.133Z,1.47
2018-12-22T20:51:48.852Z,1.00
2018-12-22T20:54:17.519Z,1.27
2018-12-22T20:56:45.505Z,3.80
2018-12-22T20:59:14.009Z,8.07
2018-12-22T21:01:41.810Z,6.50
2018-12-22T21:04:19.618Z,14.90
2018-12-22T21:06:40.739Z,5.30
2018-12-22T21:09:08.485Z,9.40
2018-12-22T21:11:36.330Z,8.77
2018-12-22T21:14:04.935Z,9.00
2018-12-22T21:16:33.688Z,0.80
2018-12-22T21:19:01.442Z,12.80
2018-12-22T21:21:30.199Z,5.47
2018-12-22T21:23:57.920Z,0.30
2018-12-22T21:26:26.999Z,0.30
2018-12-22T21:28:54.643Z,0.20
2018-12-22T21:31:22.439Z,1.37
2018-12-22T21:33:50.076Z,0.93
2018-12-22T21:36:17.730Z,0.87
2018-12-22T21:38:45.440Z,1.03
2018-12-22T21:41:13.048Z,2.43
2018-12-22T21:43:40.740Z,0.20
2018-12-22T21:46:10.090Z,0.73
2018-12-22T21:48:38.099Z,0.73
2018-12-22T21:51:05.809Z,2.57
2018-12-22T21:53:34.175Z,0.20
2018-12-22T21:56:01.817Z,0.20
2018-12-22T21:58:29.523Z,0.20
2018-12-22T22:00:57.165Z,3.33
2018-12-22T22:03:24.907Z,0.57
2018-12-22T22:05:52.584Z,0.20
2018-12-22T22:08:20.652Z,0.20
2018-12-22T22:10:48.525Z,2.43
2018-12-22T22:13:16.386Z,0.93
2018-12-22T22:15:44.102Z,0.30
2018-12-22T22:18:11.795Z,0.20
2018-12-22T22:20:39.470Z,0.20
2018-12-22T22:23:08.305Z,0.20
2018-12-22T22:25:36.096Z,0.60
2018-12-22T22:28:03.994Z,0.20
2018-12-22T22:30:32.090Z,0.20
2018-12-22T22:33:01.507Z,0.20
2018-12-22T22:35:29.114Z,0.20
2018-12-22T22:37:58.441Z,0.20
2018-12-22T22:40:26.430Z,0.30
2018-12-22T22:42:54.889Z,0.40
2018-12-22T22:45:23.301Z,0.30
2018-12-22T22:47:51.342Z,0.20
2018-12-22T22:50:19.176Z,0.20
2018-12-22T22:52:48.728Z,0.40
2018-12-22T22:55:16.429Z,0.60
2018-12-22T22:57:44.239Z,0.20
2018-12-22T23:00:14.358Z,0.20
2018-12-22T23:02:42.221Z,0.20
2018-12-22T23:05:09.903Z,0.20
2018-12-22T23:07:37.590Z,0.20
2018-12-22T23:10:07.354Z,0.40
2018-12-22T23:12:36.267Z,0.30
2018-12-22T23:15:04.549Z,0.43
2018-12-22T23:17:32.399Z,0.30
2018-12-22T23:20:01.221Z,0.30
2018-12-22T23:22:29.048Z,0.77
2018-12-22T23:24:57.547Z,0.30
2018-12-22T23:27:25.403Z,0.70
2018-12-22T23:29:54.088Z,0.77
2018-12-22T23:32:23.184Z,1.27
2018-12-22T23:34:51.094Z,0.27
2018-12-22T23:37:18.820Z,3.17
2018-12-22T23:39:47.401Z,1.23
2018-12-22T23:42:15.406Z,0.80
2018-12-22T23:44:44.026Z,1.07
2018-12-22T23:47:12.527Z,0.40
2018-12-22T23:49:40.414Z,0.83
2018-12-22T23:52:08.273Z,0.53
2018-12-22T23:54:35.880Z,0.60
2018-12-22T23:57:03.563Z,0.80
2018-12-22T23:59:31.364Z,3.17
